Terminal Aerodrome Forecast
Issued by NWS

Home | Current Version | Previous Version | Text Only | Print | Product List | Glossary On
Versions: 1 2 3 4 5 6 7 8 9 10 11 12 13 14 15 16 17 18 19 20 21 22 23 24
653
FTUS44 KOUN 110048 RRA
TAFHBR
TAF
KHBR 110048Z 1101/1124 18019G26KT P6SM SCT250
     FM110500 19020G28KT P6SM OVC020
     FM110900 19020G28KT P6SM OVC009
     FM112000 30017G22KT P6SM BKN250=

USA.gov is the U.S. government's official web portal to all federal, state and local government web resources and services.